Latest Weather Observations for Blackall

IDQ60801

Issued at 3:02 pm EST Tuesday 31 March 2015 (issued every 30 minutes, with the page automatically refreshed every 10 minutes)

About weather observations | Map of weather stations | Latest weather observations for QLD | Other Formats
Station Details ID: 036034 Name: BLACKALL AIRPORT Lat: -24.43 Lon: 145.43 Height: 281.3 m
Data from the previous 72 hours. | See also: Recent months at Blackall
Date/Time
EST
Temp
°C
App
Temp
°C
Dew
Point
Rel
Hum
%
Delta-T
°C
Wind Press
QNH
hPa
Press
MSL
hPa
Rain
since 9 am
mm
Dir
 
Spd
km/h
Gust
km/h
Spd
kts
Gust
kts
31/03:00pm 26.1 26.0 16.9 57 5.8 ENE 13 22 7 12 1017.6 1015.9 0.2
31/02:30pm 25.9 25.8 17.0 58 5.6 ENE 13 20 7 11 1017.5 1015.8 0.2
31/02:00pm 25.8 26.6 18.2 63 4.9 ENE 11 19 6 10 1018.1 1016.3 0.2
31/01:30pm 25.3 25.8 17.5 62 4.9 NE 11 20 6 11 1018.8 1017.1 0.2
31/01:00pm 24.1 24.4 16.9 64 4.5 NNE 11 17 6 9 1019.5 1017.8 0.2
31/12:30pm 24.2 24.2 18.2 69 3.8 N 15 20 8 11 1019.9 1018.2 0.2
31/12:00pm 23.0 22.4 17.5 71 3.4 N 17 22 9 12 1020.1 1018.4 0.2
31/11:30am 22.6 21.8 17.9 75 3.0 N 19 24 10 13 1020.5 1018.8 0.2
31/11:00am 22.3 21.5 18.1 77 2.6 NNE 19 28 10 15 1020.7 1019.0 0.0
31/10:30am 22.2 20.9 18.2 78 2.5 NNE 22 30 12 16 1021.2 1019.5 0.0
31/10:00am 22.1 20.5 18.3 79 2.4 N 24 32 13 17 1021.4 1019.8 0.0
31/09:30am 21.9 20.7 18.5 81 2.2 NNE 22 32 12 17 1021.4 1019.8 0.0
31/09:00am 21.8 21.1 18.6 82 2.0 NNE 20 30 11 16 1021.5 1019.9 27.2
31/08:30am 21.6 22.2 19.5 88 1.4 NNE 15 22 8 12 1021.2 1019.5 27.2
31/08:00am 21.3 22.3 19.4 89 1.2 NE 13 17 7 9 1020.9 1019.2 27.2
31/07:30am 20.9 22.6 19.4 91 1.0 ENE 9 11 5 6 1020.7 1019.0 27.2
31/07:00am 20.6 20.4 19.4 93 0.8 NE 19 22 10 12 1019.3 1017.6 27.2
31/06:30am 20.6 21.7 18.9 90 1.1 ENE 11 15 6 8 1019.5 1017.8 27.0
31/06:00am 20.5 21.5 19.5 94 0.6 E 13 17 7 9 1018.8 1017.1 27.0
31/05:30am 20.3 21.3 19.5 95 0.5 ESE 13 17 7 9 1018.5 1016.8 27.0
31/05:00am 20.4 20.7 19.6 95 0.5 NE 17 26 9 14 1018.2 1016.5 26.6
31/04:30am 20.2 21.2 20.2 100 0.0 NE 15 19 8 10 1018.7 1017.0 25.4
31/04:00am 20.2 21.4 20.0 99 0.1 SSE 13 24 7 13 1018.6 1016.9 13.4
31/03:30am 21.0 20.6 19.3 90 1.1 SSE 20 28 11 15 1018.1 1016.3 6.6
31/03:00am 21.1 21.8 19.7 92 0.9 SE 15 22 8 12 1018.1 1016.3 6.6
31/02:30am 21.0 21.9 20.0 94 0.6 SE 15 19 8 10 1018.4 1016.7 6.6
31/02:00am 21.0 22.0 20.2 95 0.5 SE 15 19 8 10 1019.0 1017.3 6.6
31/01:30am 21.0 21.7 20.5 97 0.3 ESE 17 20 9 11 1019.5 1017.8 6.4
31/01:00am 21.4 23.8 19.7 90 1.1 ESE 6 9 3 5 1020.2 1018.5 5.2
31/12:30am 21.5 23.7 20.5 94 0.7 SSW 9 13 5 7 1020.3 1018.6 4.4
31/12:00am 21.9 22.9 19.5 86 1.5 SSE 13 19 7 10 1019.9 1018.2 3.2
 
Date/Time
EST
Temp
°C
App
Temp
°C
Dew
Point
Rel
Hum
%
Delta-T
°C
Wind Press
QNH
hPa
Press
MSL
hPa
Rain
since 9 am
mm
Dir
 
Spd
km/h
Gust
km/h
Spd
kts
Gust
kts
30/11:30pm 22.3 22.0 19.5 84 1.8 SE 20 28 11 15 1019.2 1017.5 2.4
30/11:00pm 22.3 22.1 19.7 85 1.7 SE 20 30 11 16 1019.5 1017.8 2.4
30/10:30pm 22.2 21.5 19.6 85 1.7 ESE 22 32 12 17 1019.7 1018.0 2.4
30/10:00pm 22.1 22.4 19.5 85 1.7 SE 17 22 9 12 1020.4 1018.7 2.4
30/09:30pm 22.2 21.1 19.4 84 1.8 ESE 24 32 13 17 1019.9 1018.2 2.4
30/09:00pm 22.4 21.7 19.6 84 1.8 SSE 22 30 12 16 1020.5 1018.8 2.0
30/08:30pm 23.8 23.4 18.9 74 3.1 SE 19 32 10 17 1019.9 1018.2 1.4
30/08:00pm 24.0 23.5 19.1 74 3.2 SE 20 28 11 15 1019.6 1017.9 1.4
30/07:30pm 24.5 24.3 19.3 73 3.4 SE 19 24 10 13 1019.4 1017.7 0.6
30/07:00pm 24.8 24.5 19.6 73 3.4 ESE 20 28 11 15 1018.8 1017.1 0.4
30/06:30pm 24.6 24.3 19.2 72 3.5 S 19 26 10 14 1018.3 1016.6 0.4
30/06:00pm 24.1 21.3 19.0 73 3.3 SSW 32 46 17 25 1017.7 1016.0 0.2
30/05:30pm 28.7 26.1 16.9 48 7.5 SSW 26 37 14 20 1016.9 1015.2 0.0
30/05:00pm 32.9 32.7 13.5 30 11.8 NE 7 15 4 8 1016.4 1014.7 0.0
30/04:30pm 33.3 32.5 13.9 31 11.9 ENE 11 19 6 10 1016.1 1014.4 0.0
30/04:00pm 33.8 33.1 14.3 31 12.1 ENE 11 20 6 11 1016.1 1014.4 0.0
30/03:30pm 34.1 32.4 14.6 31 12.2 ENE 17 28 9 15 1016.1 1014.4 0.0
30/03:00pm 32.9 30.6 14.0 32 11.6 ENE 19 26 10 14 1016.3 1014.6 0.0
30/02:30pm 32.8 31.4 13.4 30 11.8 E 13 22 7 12 1016.6 1014.9 0.0
30/02:00pm 33.6 33.4 13.6 29 12.3 NNE 7 17 4 9 1017.0 1015.3 0.0
30/01:30pm 33.4 32.4 14.5 32 11.7 E 13 20 7 11 1017.5 1015.8 0.0
30/01:00pm 33.0 31.6 14.6 33 11.4 NNE 15 26 8 14 1018.2 1016.5 0.0
30/12:30pm 31.5 29.9 15.0 36 10.3 NE 17 24 9 13 1018.7 1017.0 0.0
30/12:00pm 31.9 30.6 15.8 38 10.1 NNE 17 26 9 14 1019.4 1017.7 0.0
30/11:30am 30.9 28.8 16.1 41 9.3 ENE 22 32 12 17 1020.0 1018.3 0.0
30/11:00am 29.9 28.4 16.7 45 8.4 NE 20 32 11 17 1020.5 1018.8 0.0
30/10:30am 29.6 28.4 17.4 47 7.8 NE 20 32 11 17 1020.9 1019.2 0.0
30/10:00am 28.8 27.1 17.3 49 7.3 NNE 22 33 12 18 1020.9 1019.2 0.0
30/09:30am 27.3 26.2 17.8 56 6.1 NNE 20 32 11 17 1020.9 1019.2 0.0
30/09:00am 26.7 25.8 17.7 57 5.7 NE 19 28 10 15 1021.2 1019.5 1.2
30/08:30am 25.6 25.2 18.0 63 4.8 NE 17 26 9 14 1021.1 1019.4 1.2
30/08:00am 24.9 24.0 18.1 66 4.3 NE 20 30 11 16 1020.4 1018.7 1.2
30/07:30am 24.3 23.9 18.0 68 4.0 NNE 17 22 9 12 1020.1 1018.4 1.2
30/07:00am 24.1 23.2 17.8 68 4.0 NE 19 22 10 12 1019.7 1018.0 1.2
30/06:30am 24.2 23.4 17.9 68 4.0 NE 19 28 10 15 1019.0 1017.3 1.2
30/06:00am 24.5 23.1 18.0 67 4.1 NNE 22 30 12 16 1018.8 1017.1 1.2
30/05:30am 24.7 23.9 17.9 66 4.3 NE 19 24 10 13 1018.4 1016.7 1.2
30/05:00am 25.1 23.8 18.1 65 4.5 NNE 22 33 12 18 1017.9 1016.1 1.2
30/04:30am 25.0 23.3 18.0 65 4.5 NE 24 33 13 18 1017.4 1015.7 1.2
30/04:00am 24.5 23.7 18.0 67 4.1 ENE 19 26 10 14 1018.0 1016.2 1.2
30/03:30am 24.2 23.3 17.7 67 4.1 E 19 24 10 13 1018.5 1016.8 1.2
30/03:00am 24.1 23.6 17.8 68 4.0 E 17 22 9 12 1018.6 1016.9 1.2
30/02:30am 24.1 23.6 17.8 68 4.0 ESE 17 24 9 13 1019.0 1017.3 1.2
30/02:00am 23.6 22.8 18.5 73 3.2 ESE 20 28 11 15 1019.5 1017.8 1.2
30/01:30am 24.1 24.1 18.1 69 3.8 SSE 15 22 8 12 1019.8 1018.1 1.2
30/01:00am 24.5 23.8 18.2 68 4.0 S 19 28 10 15 1019.7 1018.0 1.2
30/12:30am 24.5 24.2 18.2 68 4.0 S 17 24 9 13 1019.8 1018.1 1.2
30/12:00am 24.8 23.8 18.0 66 4.3 S 20 35 11 19 1019.8 1018.1 1.2
 
Date/Time
EST
Temp
°C
App
Temp
°C
Dew
Point
Rel
Hum
%
Delta-T
°C
Wind Press
QNH
hPa
Press
MSL
hPa
Rain
since 9 am
mm
Dir
 
Spd
km/h
Gust
km/h
Spd
kts
Gust
kts
29/11:30pm 24.8 24.3 19.0 70 3.7 SSW 20 28 11 15 1019.9 1018.2 1.0
29/11:00pm 26.9 26.1 17.9 57 5.7 SW 19 26 10 14 1019.9 1018.2 0.0
29/10:30pm 27.1 27.9 17.3 55 6.2 SSE 9 15 5 8 1019.6 1017.9 0.0
29/10:00pm 27.0 27.6 17.8 57 5.9 SSE 11 17 6 9 1019.5 1017.8 0.0
29/09:30pm 26.9 27.6 17.9 57 5.8 S 11 15 6 8 1019.5 1017.8 0.0
29/09:00pm 26.9 26.2 17.4 56 6.0 S 17 26 9 14 1019.3 1017.6 0.0
29/08:30pm 28.7 26.6 16.3 47 7.8 S 22 30 12 16 1019.2 1017.5 0.0
29/08:00pm 29.5 27.5 15.6 43 8.6 S 20 32 11 17 1018.4 1016.7 0.0
29/07:30pm 31.8 31.0 14.0 34 10.9 ENE 11 13 6 7 1017.5 1015.8 0.0
29/07:00pm 31.9 31.0 13.6 32 11.1 ENE 11 15 6 8 1017.3 1015.6 0.0
29/06:30pm 32.5 30.4 13.7 32 11.5 ENE 17 22 9 12 1016.9 1015.2 0.0
29/06:00pm 33.2 31.4 13.3 30 12.1 E 15 19 8 10 1016.6 1014.9 0.0
29/05:30pm 34.2 32.7 13.1 28 12.9 ENE 13 20 7 11 1016.2 1014.5 0.0
29/05:00pm 34.5 33.8 13.3 27 13.0 NE 9 15 5 8 1016.1 1014.4 0.0
29/04:30pm 34.5 34.2 12.8 27 13.2 ENE 6 15 3 8 1015.9 1014.2 0.0
29/04:00pm 34.5 34.2 13.3 27 13.0 ENE 7 13 4 7 1015.8 1014.1 0.0
29/03:30pm 34.2 33.8 13.1 28 12.9 N 7 19 4 10 1016.1 1014.4 0.0
29/03:00pm 34.0 33.6 14.0 30 12.4 ENE 9 15 5 8 1016.5 1014.8 0.0
29/02:30pm 33.1 32.9 14.7 33 11.5 ESE 9 19 5 10 1016.8 1015.1 0.0
29/02:00pm 33.3 32.7 13.4 30 12.1 ESE 9 13 5 7 1017.2 1015.5 0.0
29/01:30pm 33.9 32.8 14.4 31 12.1 E 13 26 7 14 1017.7 1016.0 0.0
29/01:00pm 33.2 31.2 13.8 31 11.9 NNE 17 24 9 13 1018.2 1016.5 0.0
29/12:30pm 32.9 31.5 14.5 33 11.4 NNE 15 24 8 13 1018.7 1017.0 0.0
29/12:00pm 33.0 31.2 15.5 35 11.0 NNE 19 30 10 16 1019.3 1017.6 0.0
29/11:30am 32.0 30.0 15.5 37 10.4 NNE 20 32 11 17 1019.8 1018.1 0.0
29/11:00am 31.6 29.7 16.7 40 9.5 NNE 22 35 12 19 1020.0 1018.3 0.0
29/10:30am 29.9 27.6 16.7 45 8.4 NNE 24 33 13 18 1020.2 1018.5 0.0
29/10:00am 29.7 28.5 17.5 48 7.8 NNE 20 28 11 15 1020.4 1018.7 0.0
29/09:30am 29.1 28.1 17.9 50 7.2 NNE 20 35 11 19 1020.6 1018.9 0.0
29/09:00am 28.1 26.7 17.9 54 6.5 NNE 22 32 12 17 1020.6 1018.9 0.0
29/08:30am 26.8 25.3 17.6 57 5.9 NNE 22 28 12 15 1020.5 1018.8 0.0
29/08:00am 25.6 25.3 16.4 56 5.7 NE 13 20 7 11 1020.2 1018.5 0.0
29/07:30am 24.3 23.6 15.5 58 5.4 ENE 13 15 7 8 1019.7 1018.0 0.0
29/07:00am 22.9 22.4 13.7 56 5.4 E 9 9 5 5 1019.0 1017.3 0.0
29/06:30am 22.0 21.5 12.8 56 5.3 E 7 11 4 6 1018.5 1016.8 0.0
29/06:00am 22.1 20.7 12.1 53 5.7 ESE 11 13 6 7 1018.1 1016.3 0.0
29/05:30am 22.3 20.3 11.4 50 6.2 ESE 13 17 7 9 1017.4 1015.7 0.0
29/05:00am 22.6 21.0 11.7 50 6.2 ESE 11 15 6 8 1017.1 1015.4 0.0
29/04:30am 22.3 20.8 10.5 47 6.6 ESE 9 11 5 6 1016.8 1015.1 0.0
29/04:00am 22.8 21.1 9.9 44 7.1 SE 9 13 5 7 1016.6 1014.9 0.0
29/03:30am 22.9 21.2 9.7 43 7.3 SE 9 11 5 6 1016.6 1014.9 0.0
29/03:00am 23.9 22.1 9.5 40 7.9 E 9 13 5 7 1016.4 1014.7 0.0
29/02:30am 24.3 22.3 8.7 37 8.5 ESE 9 13 5 7 1016.5 1014.8 0.0
29/02:00am 25.2 22.3 8.2 34 9.2 ESE 13 19 7 10 1016.5 1014.8 0.0
29/01:30am 25.4 22.5 8.0 33 9.4 ESE 13 17 7 9 1016.7 1015.0 0.0
29/01:00am 25.6 23.1 8.1 33 9.5 SE 11 13 6 7 1017.0 1015.3 0.0
29/12:30am 25.8 23.7 8.3 33 9.5 ESE 9 13 5 7 1017.3 1015.6 0.0
29/12:00am 26.5 24.2 8.9 33 9.7 SE 11 13 6 7 1017.5 1015.8 0.0
 
Date/Time
EST
Temp
°C
App
Temp
°C
Dew
Point
Rel
Hum
%
Delta-T
°C
Wind Press
QNH
hPa
Press
MSL
hPa
Rain
since 9 am
mm
Dir
 
Spd
km/h
Gust
km/h
Spd
kts
Gust
kts
28/11:30pm 26.9 24.3 9.3 33 9.8 SE 13 17 7 9 1017.6 1015.9 0.0
28/11:00pm 27.0 24.8 9.4 33 9.8 ESE 11 15 6 8 1017.7 1016.0 0.0
28/10:30pm 27.7 25.5 9.5 32 10.2 SE 11 15 6 8 1018.0 1016.2 0.0
28/10:00pm 28.4 26.5 9.2 30 10.7 SE 9 13 5 7 1018.0 1016.2 0.0
28/09:30pm 29.3 26.7 9.4 29 11.2 ESE 13 19 7 10 1017.7 1016.0 0.0
28/09:00pm 28.4 26.0 10.1 32 10.4 ENE 13 19 7 10 1017.4 1015.7 0.0
28/08:30pm 28.9 27.4 10.6 32 10.5 SE 9 11 5 6 1017.0 1015.3 0.0
28/08:00pm 29.6 27.9 11.2 32 10.7 SSE 11 13 6 7 1016.9 1015.2 0.0
28/07:30pm 29.6 28.1 10.7 31 10.9 SE 9 9 5 5 1016.6 1014.9 0.0
28/07:00pm 31.0 30.8 10.4 28 11.9 E 2 6 1 3 1016.1 1014.4 0.0
28/06:30pm 32.3 31.0 9.8 25 13.0 SE 7 11 4 6 1015.7 1014.0 0.0
28/06:00pm 33.4 32.1 10.1 24 13.5 SSE 7 9 4 5 1015.5 1013.8 0.0
28/05:30pm 34.0 32.1 10.6 24 13.8 SSE 11 13 6 7 1015.4 1013.7 0.0
28/05:00pm 34.2 32.7 10.7 24 13.8 SSW 9 15 5 8 1015.1 1013.4 0.0
28/04:30pm 33.7 32.7 10.9 25 13.4 SSE 7 17 4 9 1015.3 1013.6 0.0
28/04:00pm 34.4 33.0 10.9 24 13.9 NNW 9 15 5 8 1015.5 1013.8 0.0
28/03:30pm 34.6 34.0 11.7 25 13.7 N 6 7 3 4 1015.5 1013.8 0.0

Other Formats:

Comma delimited format used in spreadsheet applications
http://www.bom.gov.au/fwo/IDQ60801/IDQ60801.95351.axf

JavaScript Object Notation format (JSON) in row-major order
http://www.bom.gov.au/fwo/IDQ60801/IDQ60801.95351.json